sensor_id;sensor_type;location;lat;lon;timestamp;P1;durP1;ratioP1;P2;durP2;ratioP2
55641;SDS011;41509;53.108;6.100;2022-11-20T00:00:56;13.93;;;6.30;;
55641;SDS011;41509;53.108;6.100;2022-11-20T00:03:21;10.60;;;5.57;;
55641;SDS011;41509;53.108;6.100;2022-11-20T00:05:47;11.80;;;6.23;;
55641;SDS011;41509;53.108;6.100;2022-11-20T00:08:13;13.37;;;5.20;;
55641;SDS011;41509;53.108;6.100;2022-11-20T00:10:39;10.83;;;5.27;;
55641;SDS011;41509;53.108;6.100;2022-11-20T00:13:05;10.77;;;5.10;;
55641;SDS011;41509;53.108;6.100;2022-11-20T00:15:31;15.07;;;6.18;;
55641;SDS011;41509;53.108;6.100;2022-11-20T00:17:57;11.95;;;5.40;;
55641;SDS011;41509;53.108;6.100;2022-11-20T00:20:23;12.87;;;6.30;;
55641;SDS011;41509;53.108;6.100;2022-11-20T00:22:49;10.67;;;5.00;;
55641;SDS011;41509;53.108;6.100;2022-11-20T00:25:14;11.75;;;6.15;;
55641;SDS011;41509;53.108;6.100;2022-11-20T00:27:40;14.38;;;6.57;;
55641;SDS011;41509;53.108;6.100;2022-11-20T00:30:06;12.47;;;6.23;;
55641;SDS011;41509;53.108;6.100;2022-11-20T00:32:32;16.58;;;6.45;;
55641;SDS011;41509;53.108;6.100;2022-11-20T00:34:58;14.67;;;5.87;;
55641;SDS011;41509;53.108;6.100;2022-11-20T00:37:23;16.97;;;6.37;;
55641;SDS011;41509;53.108;6.100;2022-11-20T00:39:49;13.97;;;6.87;;
55641;SDS011;41509;53.108;6.100;2022-11-20T00:42:15;16.43;;;7.07;;
55641;SDS011;41509;53.108;6.100;2022-11-20T00:44:40;14.87;;;6.30;;
55641;SDS011;41509;53.108;6.100;2022-11-20T00:47:06;15.97;;;7.63;;
55641;SDS011;41509;53.108;6.100;2022-11-20T00:49:31;18.73;;;7.00;;
55641;SDS011;41509;53.108;6.100;2022-11-20T00:51:57;16.50;;;7.07;;
55641;SDS011;41509;53.108;6.100;2022-11-20T00:54:22;13.07;;;6.63;;
55641;SDS011;41509;53.108;6.100;2022-11-20T00:56:48;16.60;;;6.37;;
55641;SDS011;41509;53.108;6.100;2022-11-20T00:59:14;14.80;;;6.90;;
55641;SDS011;41509;53.108;6.100;2022-11-20T01:01:39;16.67;;;6.70;;
55641;SDS011;41509;53.108;6.100;2022-11-20T01:04:05;13.50;;;6.60;;
55641;SDS011;41509;53.108;6.100;2022-11-20T01:06:35;11.30;;;5.77;;
55641;SDS011;41509;53.108;6.100;2022-11-20T01:09:03;13.95;;;5.45;;
55641;SDS011;41509;53.108;6.100;2022-11-20T01:11:36;12.27;;;5.85;;
55641;SDS011;41509;53.108;6.100;2022-11-20T01:14:04;11.18;;;5.70;;
55641;SDS011;41509;53.108;6.100;2022-11-20T01:16:35;11.73;;;5.53;;
55641;SDS011;41509;53.108;6.100;2022-11-20T01:19:03;10.88;;;5.78;;
55641;SDS011;41509;53.108;6.100;2022-11-20T01:21:34;12.15;;;6.13;;
55641;SDS011;41509;53.108;6.100;2022-11-20T01:24:02;16.85;;;7.10;;
55641;SDS011;41509;53.108;6.100;2022-11-20T01:26:30;12.10;;;5.63;;
55641;SDS011;41509;53.108;6.100;2022-11-20T01:28:58;12.55;;;6.32;;
55641;SDS011;41509;53.108;6.100;2022-11-20T01:31:31;14.13;;;6.82;;
55641;SDS011;41509;53.108;6.100;2022-11-20T01:33:59;15.35;;;7.22;;
55641;SDS011;41509;53.108;6.100;2022-11-20T01:36:28;11.38;;;6.43;;
55641;SDS011;41509;53.108;6.100;2022-11-20T01:39:00;14.35;;;6.25;;
55641;SDS011;41509;53.108;6.100;2022-11-20T01:41:28;11.02;;;5.60;;
55641;SDS011;41509;53.108;6.100;2022-11-20T01:44:17;13.25;;;5.75;;
55641;SDS011;41509;53.108;6.100;2022-11-20T01:46:52;12.40;;;5.90;;
55641;SDS011;41509;53.108;6.100;2022-11-20T01:49:33;15.07;;;6.07;;
55641;SDS011;41509;53.108;6.100;2022-11-20T01:52:17;12.07;;;6.03;;
55641;SDS011;41509;53.108;6.100;2022-11-20T01:54:51;12.80;;;5.53;;
55641;SDS011;41509;53.108;6.100;2022-11-20T01:57:18;12.63;;;6.57;;
55641;SDS011;41509;53.108;6.100;2022-11-20T01:59:48;13.00;;;6.50;;
55641;SDS011;41509;53.108;6.100;2022-11-20T02:02:20;14.85;;;6.47;;
55641;SDS011;41509;53.108;6.100;2022-11-20T02:04:47;12.25;;;5.90;;
55641;SDS011;41509;53.108;6.100;2022-11-20T02:07:16;11.82;;;5.57;;
55641;SDS011;41509;53.108;6.100;2022-11-20T02:12:09;12.65;;;5.82;;
55641;SDS011;41509;53.108;6.100;2022-11-20T02:14:55;12.00;;;5.22;;
55641;SDS011;41509;53.108;6.100;2022-11-20T02:17:21;9.00;;;4.95;;
55641;SDS011;41509;53.108;6.100;2022-11-20T02:19:47;12.32;;;5.47;;
55641;SDS011;41509;53.108;6.100;2022-11-20T02:22:21;9.33;;;4.90;;
55641;SDS011;41509;53.108;6.100;2022-11-20T02:24:53;10.90;;;6.05;;
55641;SDS011;41509;53.108;6.100;2022-11-20T02:27:19;11.73;;;5.50;;
55641;SDS011;41509;53.108;6.100;2022-11-20T02:29:53;12.65;;;6.03;;
55641;SDS011;41509;53.108;6.100;2022-11-20T02:34:47;15.37;;;7.43;;
55641;SDS011;41509;53.108;6.100;2022-11-20T02:37:13;9.80;;;5.00;;
55641;SDS011;41509;53.108;6.100;2022-11-20T02:39:39;12.20;;;5.68;;
55641;SDS011;41509;53.108;6.100;2022-11-20T02:42:06;14.23;;;5.80;;
55641;SDS011;41509;53.108;6.100;2022-11-20T02:44:32;12.63;;;5.97;;
55641;SDS011;41509;53.108;6.100;2022-11-20T02:46:58;12.83;;;5.67;;
55641;SDS011;41509;53.108;6.100;2022-11-20T02:49:24;12.50;;;5.93;;
55641;SDS011;41509;53.108;6.100;2022-11-20T02:51:50;9.85;;;5.18;;
55641;SDS011;41509;53.108;6.100;2022-11-20T02:54:15;10.17;;;5.67;;
55641;SDS011;41509;53.108;6.100;2022-11-20T02:56:41;11.80;;;6.37;;
55641;SDS011;41509;53.108;6.100;2022-11-20T03:01:34;12.82;;;5.78;;
55641;SDS011;41509;53.108;6.100;2022-11-20T03:03:59;10.37;;;5.63;;
55641;SDS011;41509;53.108;6.100;2022-11-20T03:06:25;10.60;;;5.37;;
55641;SDS011;41509;53.108;6.100;2022-11-20T03:08:51;13.17;;;5.83;;
55641;SDS011;41509;53.108;6.100;2022-11-20T03:11:16;13.07;;;5.10;;
55641;SDS011;41509;53.108;6.100;2022-11-20T03:13:42;14.03;;;5.93;;
55641;SDS011;41509;53.108;6.100;2022-11-20T03:16:12;13.13;;;6.27;;
55641;SDS011;41509;53.108;6.100;2022-11-20T03:18:40;12.10;;;5.38;;
55641;SDS011;41509;53.108;6.100;2022-11-20T03:23:32;11.40;;;5.05;;
55641;SDS011;41509;53.108;6.100;2022-11-20T03:26:12;12.48;;;6.45;;
55641;SDS011;41509;53.108;6.100;2022-11-20T03:28:40;11.43;;;5.05;;
55641;SDS011;41509;53.108;6.100;2022-11-20T03:31:11;10.57;;;5.93;;
55641;SDS011;41509;53.108;6.100;2022-11-20T03:33:38;10.77;;;5.13;;
55641;SDS011;41509;53.108;6.100;2022-11-20T03:36:06;16.42;;;6.50;;
55641;SDS011;41509;53.108;6.100;2022-11-20T03:38:34;14.25;;;5.18;;
55641;SDS011;41509;53.108;6.100;2022-11-20T03:41:05;12.00;;;5.07;;
55641;SDS011;41509;53.108;6.100;2022-11-20T03:43:32;13.73;;;6.07;;
55641;SDS011;41509;53.108;6.100;2022-11-20T03:45:59;13.18;;;6.13;;
55641;SDS011;41509;53.108;6.100;2022-11-20T03:48:24;11.37;;;5.53;;
55641;SDS011;41509;53.108;6.100;2022-11-20T03:50:51;14.03;;;5.47;;
55641;SDS011;41509;53.108;6.100;2022-11-20T03:53:17;9.25;;;4.80;;
55641;SDS011;41509;53.108;6.100;2022-11-20T03:55:43;11.40;;;5.70;;
55641;SDS011;41509;53.108;6.100;2022-11-20T03:58:09;9.30;;;5.00;;
55641;SDS011;41509;53.108;6.100;2022-11-20T04:00:35;10.47;;;5.10;;
55641;SDS011;41509;53.108;6.100;2022-11-20T04:03:01;13.40;;;5.50;;
55641;SDS011;41509;53.108;6.100;2022-11-20T04:05:27;10.70;;;4.97;;
55641;SDS011;41509;53.108;6.100;2022-11-20T04:07:53;9.00;;;4.33;;
55641;SDS011;41509;53.108;6.100;2022-11-20T04:10:18;10.20;;;5.60;;
55641;SDS011;41509;53.108;6.100;2022-11-20T04:12:44;11.17;;;5.33;;
55641;SDS011;41509;53.108;6.100;2022-11-20T04:15:10;13.23;;;5.17;;
55641;SDS011;41509;53.108;6.100;2022-11-20T04:17:36;11.50;;;5.63;;
55641;SDS011;41509;53.108;6.100;2022-11-20T04:20:02;13.23;;;5.70;;
55641;SDS011;41509;53.108;6.100;2022-11-20T04:22:28;10.75;;;5.53;;
55641;SDS011;41509;53.108;6.100;2022-11-20T04:24:53;11.97;;;6.00;;
55641;SDS011;41509;53.108;6.100;2022-11-20T04:27:20;10.67;;;5.30;;
55641;SDS011;41509;53.108;6.100;2022-11-20T04:29:45;12.05;;;5.03;;
55641;SDS011;41509;53.108;6.100;2022-11-20T04:32:11;12.10;;;5.00;;
55641;SDS011;41509;53.108;6.100;2022-11-20T04:34:37;9.40;;;4.77;;
55641;SDS011;41509;53.108;6.100;2022-11-20T04:37:02;10.47;;;5.03;;
55641;SDS011;41509;53.108;6.100;2022-11-20T04:39:28;12.67;;;5.00;;
55641;SDS011;41509;53.108;6.100;2022-11-20T04:41:54;11.43;;;4.90;;
55641;SDS011;41509;53.108;6.100;2022-11-20T04:44:38;9.13;;;5.13;;
55641;SDS011;41509;53.108;6.100;2022-11-20T04:47:04;10.23;;;5.07;;
55641;SDS011;41509;53.108;6.100;2022-11-20T04:49:29;10.00;;;4.90;;
55641;SDS011;41509;53.108;6.100;2022-11-20T04:54:22;10.02;;;4.88;;
55641;SDS011;41509;53.108;6.100;2022-11-20T04:56:48;10.77;;;4.83;;
55641;SDS011;41509;53.108;6.100;2022-11-20T04:59:13;11.20;;;5.23;;
55641;SDS011;41509;53.108;6.100;2022-11-20T05:01:39;10.67;;;4.97;;
55641;SDS011;41509;53.108;6.100;2022-11-20T05:04:05;11.00;;;5.13;;
55641;SDS011;41509;53.108;6.100;2022-11-20T05:06:31;14.18;;;5.78;;
55641;SDS011;41509;53.108;6.100;2022-11-20T05:08:57;9.63;;;5.00;;
55641;SDS011;41509;53.108;6.100;2022-11-20T05:11:23;11.75;;;5.85;;
55641;SDS011;41509;53.108;6.100;2022-11-20T05:13:49;10.25;;;5.45;;
55641;SDS011;41509;53.108;6.100;2022-11-20T05:16:17;11.95;;;5.18;;
55641;SDS011;41509;53.108;6.100;2022-11-20T05:18:47;13.45;;;5.90;;
55641;SDS011;41509;53.108;6.100;2022-11-20T05:21:13;10.23;;;5.68;;
55641;SDS011;41509;53.108;6.100;2022-11-20T05:23:39;10.40;;;5.30;;
55641;SDS011;41509;53.108;6.100;2022-11-20T05:26:06;9.80;;;5.25;;
55641;SDS011;41509;53.108;6.100;2022-11-20T05:28:33;10.82;;;5.35;;
55641;SDS011;41509;53.108;6.100;2022-11-20T05:31:06;10.85;;;5.43;;
55641;SDS011;41509;53.108;6.100;2022-11-20T05:33:34;10.98;;;5.22;;
55641;SDS011;41509;53.108;6.100;2022-11-20T05:36:00;12.38;;;5.78;;
55641;SDS011;41509;53.108;6.100;2022-11-20T05:38:29;11.32;;;5.15;;
55641;SDS011;41509;53.108;6.100;2022-11-20T05:40:55;11.73;;;6.07;;
55641;SDS011;41509;53.108;6.100;2022-11-20T05:43:31;16.20;;;6.38;;
55641;SDS011;41509;53.108;6.100;2022-11-20T05:45:57;10.48;;;5.07;;
55641;SDS011;41509;53.108;6.100;2022-11-20T05:48:23;9.33;;;5.20;;
55641;SDS011;41509;53.108;6.100;2022-11-20T05:50:48;9.73;;;4.70;;
55641;SDS011;41509;53.108;6.100;2022-11-20T05:53:14;9.90;;;5.37;;
55641;SDS011;41509;53.108;6.100;2022-11-20T05:55:40;12.57;;;5.87;;
55641;SDS011;41509;53.108;6.100;2022-11-20T05:58:05;12.10;;;4.90;;
55641;SDS011;41509;53.108;6.100;2022-11-20T06:00:31;10.53;;;5.00;;
55641;SDS011;41509;53.108;6.100;2022-11-20T06:02:56;10.93;;;4.67;;
55641;SDS011;41509;53.108;6.100;2022-11-20T06:05:22;9.53;;;5.03;;
55641;SDS011;41509;53.108;6.100;2022-11-20T06:07:47;13.20;;;6.00;;
55641;SDS011;41509;53.108;6.100;2022-11-20T06:10:13;11.63;;;5.87;;
55641;SDS011;41509;53.108;6.100;2022-11-20T06:12:39;8.77;;;4.80;;
55641;SDS011;41509;53.108;6.100;2022-11-20T06:15:04;10.13;;;5.07;;
55641;SDS011;41509;53.108;6.100;2022-11-20T06:17:30;8.07;;;4.40;;
55641;SDS011;41509;53.108;6.100;2022-11-20T06:19:56;11.57;;;5.30;;
55641;SDS011;41509;53.108;6.100;2022-11-20T06:22:22;11.73;;;5.80;;
55641;SDS011;41509;53.108;6.100;2022-11-20T06:24:47;9.70;;;5.20;;
55641;SDS011;41509;53.108;6.100;2022-11-20T06:27:13;9.67;;;5.03;;
55641;SDS011;41509;53.108;6.100;2022-11-20T06:29:39;9.97;;;4.60;;
55641;SDS011;41509;53.108;6.100;2022-11-20T06:32:04;8.43;;;4.90;;
55641;SDS011;41509;53.108;6.100;2022-11-20T06:34:30;10.10;;;4.90;;
55641;SDS011;41509;53.108;6.100;2022-11-20T06:36:56;9.83;;;4.63;;
55641;SDS011;41509;53.108;6.100;2022-11-20T06:39:21;12.17;;;5.20;;
55641;SDS011;41509;53.108;6.100;2022-11-20T06:41:47;10.97;;;5.10;;
55641;SDS011;41509;53.108;6.100;2022-11-20T06:44:12;10.93;;;5.50;;
55641;SDS011;41509;53.108;6.100;2022-11-20T06:46:38;8.73;;;4.97;;
55641;SDS011;41509;53.108;6.100;2022-11-20T06:49:04;10.13;;;5.90;;
55641;SDS011;41509;53.108;6.100;2022-11-20T06:51:29;10.60;;;5.23;;
55641;SDS011;41509;53.108;6.100;2022-11-20T06:53:55;9.73;;;5.10;;
55641;SDS011;41509;53.108;6.100;2022-11-20T06:56:20;11.17;;;5.03;;
55641;SDS011;41509;53.108;6.100;2022-11-20T06:58:46;11.33;;;5.30;;
55641;SDS011;41509;53.108;6.100;2022-11-20T07:01:12;8.27;;;4.27;;
55641;SDS011;41509;53.108;6.100;2022-11-20T07:03:39;11.55;;;5.35;;
55641;SDS011;41509;53.108;6.100;2022-11-20T07:06:05;10.48;;;5.18;;
55641;SDS011;41509;53.108;6.100;2022-11-20T07:08:32;8.95;;;4.93;;
55641;SDS011;41509;53.108;6.100;2022-11-20T07:13:25;8.38;;;4.28;;
55641;SDS011;41509;53.108;6.100;2022-11-20T07:15:52;10.52;;;4.82;;
55641;SDS011;41509;53.108;6.100;2022-11-20T07:18:17;13.10;;;6.10;;
55641;SDS011;41509;53.108;6.100;2022-11-20T07:20:43;12.77;;;5.80;;
55641;SDS011;41509;53.108;6.100;2022-11-20T07:23:08;10.03;;;5.00;;
55641;SDS011;41509;53.108;6.100;2022-11-20T07:25:34;11.20;;;5.37;;
55641;SDS011;41509;53.108;6.100;2022-11-20T07:28:00;11.00;;;4.78;;
55641;SDS011;41509;53.108;6.100;2022-11-20T07:30:27;10.30;;;5.37;;
55641;SDS011;41509;53.108;6.100;2022-11-20T07:32:54;9.98;;;4.78;;
55641;SDS011;41509;53.108;6.100;2022-11-20T07:35:20;11.38;;;5.05;;
55641;SDS011;41509;53.108;6.100;2022-11-20T07:37:46;10.57;;;5.35;;
55641;SDS011;41509;53.108;6.100;2022-11-20T07:42:46;9.65;;;4.63;;
55641;SDS011;41509;53.108;6.100;2022-11-20T07:45:19;9.88;;;4.70;;
55641;SDS011;41509;53.108;6.100;2022-11-20T07:47:46;9.07;;;4.63;;
55641;SDS011;41509;53.108;6.100;2022-11-20T07:50:13;13.77;;;5.38;;
55641;SDS011;41509;53.108;6.100;2022-11-20T07:52:39;13.50;;;5.30;;
55641;SDS011;41509;53.108;6.100;2022-11-20T07:55:05;9.65;;;5.03;;
55641;SDS011;41509;53.108;6.100;2022-11-20T07:57:32;11.75;;;5.15;;
55641;SDS011;41509;53.108;6.100;2022-11-20T07:59:58;11.30;;;5.13;;
55641;SDS011;41509;53.108;6.100;2022-11-20T08:02:23;11.33;;;4.67;;
55641;SDS011;41509;53.108;6.100;2022-11-20T08:04:49;9.77;;;5.23;;
55641;SDS011;41509;53.108;6.100;2022-11-20T08:07:15;11.47;;;5.13;;
55641;SDS011;41509;53.108;6.100;2022-11-20T08:09:40;12.90;;;5.37;;
55641;SDS011;41509;53.108;6.100;2022-11-20T08:12:06;10.67;;;4.63;;
55641;SDS011;41509;53.108;6.100;2022-11-20T08:14:50;13.50;;;5.10;;
55641;SDS011;41509;53.108;6.100;2022-11-20T08:17:16;10.03;;;5.43;;
55641;SDS011;41509;53.108;6.100;2022-11-20T08:19:41;9.47;;;4.47;;
55641;SDS011;41509;53.108;6.100;2022-11-20T08:22:07;10.40;;;4.83;;
55641;SDS011;41509;53.108;6.100;2022-11-20T08:24:32;11.03;;;5.40;;
55641;SDS011;41509;53.108;6.100;2022-11-20T08:26:58;10.53;;;5.20;;
55641;SDS011;41509;53.108;6.100;2022-11-20T08:29:25;10.40;;;5.00;;
55641;SDS011;41509;53.108;6.100;2022-11-20T08:31:51;13.88;;;5.82;;
55641;SDS011;41509;53.108;6.100;2022-11-20T08:34:17;13.07;;;5.33;;
55641;SDS011;41509;53.108;6.100;2022-11-20T08:36:43;12.50;;;5.63;;
55641;SDS011;41509;53.108;6.100;2022-11-20T08:39:11;9.10;;;4.77;;
55641;SDS011;41509;53.108;6.100;2022-11-20T08:41:39;10.07;;;4.57;;
55641;SDS011;41509;53.108;6.100;2022-11-20T08:44:05;9.57;;;5.63;;
55641;SDS011;41509;53.108;6.100;2022-11-20T08:46:33;11.10;;;4.85;;
55641;SDS011;41509;53.108;6.100;2022-11-20T08:48:59;12.80;;;5.07;;
55641;SDS011;41509;53.108;6.100;2022-11-20T08:51:25;9.32;;;4.68;;
55641;SDS011;41509;53.108;6.100;2022-11-20T08:53:50;7.33;;;4.20;;
55641;SDS011;41509;53.108;6.100;2022-11-20T08:56:16;10.80;;;4.33;;
55641;SDS011;41509;53.108;6.100;2022-11-20T08:58:42;8.50;;;4.18;;
55641;SDS011;41509;53.108;6.100;2022-11-20T09:01:08;7.40;;;4.27;;
55641;SDS011;41509;53.108;6.100;2022-11-20T09:03:34;9.98;;;4.70;;
55641;SDS011;41509;53.108;6.100;2022-11-20T09:06:00;7.13;;;4.03;;
55641;SDS011;41509;53.108;6.100;2022-11-20T09:08:27;9.30;;;4.15;;
55641;SDS011;41509;53.108;6.100;2022-11-20T09:10:54;7.77;;;3.80;;
55641;SDS011;41509;53.108;6.100;2022-11-20T09:18:22;10.25;;;4.25;;
55641;SDS011;41509;53.108;6.100;2022-11-20T09:20:48;9.60;;;4.53;;
55641;SDS011;41509;53.108;6.100;2022-11-20T09:23:14;10.33;;;4.50;;
55641;SDS011;41509;53.108;6.100;2022-11-20T09:25:43;13.43;;;5.22;;
55641;SDS011;41509;53.108;6.100;2022-11-20T09:28:09;7.90;;;4.78;;
55641;SDS011;41509;53.108;6.100;2022-11-20T09:30:34;9.83;;;4.73;;
55641;SDS011;41509;53.108;6.100;2022-11-20T09:33:00;9.68;;;4.50;;
55641;SDS011;41509;53.108;6.100;2022-11-20T09:35:26;10.77;;;4.70;;
55641;SDS011;41509;53.108;6.100;2022-11-20T09:37:52;10.33;;;4.93;;
55641;SDS011;41509;53.108;6.100;2022-11-20T09:40:21;10.67;;;5.17;;
55641;SDS011;41509;53.108;6.100;2022-11-20T09:54:26;11.70;;;5.15;;
55641;SDS011;41509;53.108;6.100;2022-11-20T09:56:59;11.45;;;5.28;;
55641;SDS011;41509;53.108;6.100;2022-11-20T09:59:31;8.38;;;4.53;;
55641;SDS011;41509;53.108;6.100;2022-11-20T10:02:12;15.57;;;6.55;;
55641;SDS011;41509;53.108;6.100;2022-11-20T10:04:42;12.50;;;6.35;;
55641;SDS011;41509;53.108;6.100;2022-11-20T10:07:25;8.95;;;5.13;;
55641;SDS011;41509;53.108;6.100;2022-11-20T10:09:57;10.35;;;5.10;;
55641;SDS011;41509;53.108;6.100;2022-11-20T10:12:26;8.63;;;4.47;;
55641;SDS011;41509;53.108;6.100;2022-11-20T10:15:03;12.48;;;5.55;;
55641;SDS011;41509;53.108;6.100;2022-11-20T10:31:06;10.45;;;5.25;;
55641;SDS011;41509;53.108;6.100;2022-11-20T10:33:42;9.10;;;4.88;;
55641;SDS011;41509;53.108;6.100;2022-11-20T10:36:14;11.05;;;4.82;;
55641;SDS011;41509;53.108;6.100;2022-11-20T10:38:54;7.97;;;4.53;;
55641;SDS011;41509;53.108;6.100;2022-11-20T10:41:30;12.95;;;5.32;;
55641;SDS011;41509;53.108;6.100;2022-11-20T10:46:39;10.52;;;4.82;;
55641;SDS011;41509;53.108;6.100;2022-11-20T10:49:12;11.60;;;5.10;;
55641;SDS011;41509;53.108;6.100;2022-11-20T10:56:50;10.75;;;4.68;;
55641;SDS011;41509;53.108;6.100;2022-11-20T11:01:52;12.23;;;4.80;;
55641;SDS011;41509;53.108;6.100;2022-11-20T11:07:07;9.15;;;4.45;;
55641;SDS011;41509;53.108;6.100;2022-11-20T11:09:39;11.27;;;4.70;;
55641;SDS011;41509;53.108;6.100;2022-11-20T11:12:12;10.10;;;4.35;;
55641;SDS011;41509;53.108;6.100;2022-11-20T11:14:45;7.43;;;4.40;;
55641;SDS011;41509;53.108;6.100;2022-11-20T11:17:23;8.20;;;4.05;;
55641;SDS011;41509;53.108;6.100;2022-11-20T11:22:47;7.00;;;3.95;;
55641;SDS011;41509;53.108;6.100;2022-11-20T11:28:42;8.75;;;4.18;;
55641;SDS011;41509;53.108;6.100;2022-11-20T11:30:51;5.47;;;3.25;;
55641;SDS011;41509;53.108;6.100;2022-11-20T11:33:21;6.82;;;3.60;;
55641;SDS011;41509;53.108;6.100;2022-11-20T11:35:52;7.88;;;3.58;;
55641;SDS011;41509;53.108;6.100;2022-11-20T11:38:28;6.95;;;3.33;;
55641;SDS011;41509;53.108;6.100;2022-11-20T11:40:57;8.57;;;3.38;;
55641;SDS011;41509;53.108;6.100;2022-11-20T11:43:25;8.50;;;3.67;;
55641;SDS011;41509;53.108;6.100;2022-11-20T11:49:08;8.30;;;4.30;;
55641;SDS011;41509;53.108;6.100;2022-11-20T11:54:58;7.03;;;3.60;;
55641;SDS011;41509;53.108;6.100;2022-11-20T12:00:08;5.43;;;2.92;;
55641;SDS011;41509;53.108;6.100;2022-11-20T12:07:52;6.93;;;3.40;;
55641;SDS011;41509;53.108;6.100;2022-11-20T12:13:14;6.25;;;3.00;;
55641;SDS011;41509;53.108;6.100;2022-11-20T12:16:01;5.45;;;3.25;;
55641;SDS011;41509;53.108;6.100;2022-11-20T12:18:29;10.88;;;4.05;;
55641;SDS011;41509;53.108;6.100;2022-11-20T12:23:28;6.60;;;3.08;;
55641;SDS011;41509;53.108;6.100;2022-11-20T12:26:13;7.07;;;2.95;;
55641;SDS011;41509;53.108;6.100;2022-11-20T12:28:52;7.03;;;3.08;;
55641;SDS011;41509;53.108;6.100;2022-11-20T12:40:12;6.57;;;3.75;;
55641;SDS011;41509;53.108;6.100;2022-11-20T12:42:52;5.28;;;2.97;;
55641;SDS011;41509;53.108;6.100;2022-11-20T12:48:38;7.03;;;3.05;;
55641;SDS011;41509;53.108;6.100;2022-11-20T12:54:11;6.55;;;3.13;;
55641;SDS011;41509;53.108;6.100;2022-11-20T12:57:18;5.60;;;2.95;;
55641;SDS011;41509;53.108;6.100;2022-11-20T13:07:28;6.60;;;2.67;;
55641;SDS011;41509;53.108;6.100;2022-11-20T13:09:57;4.90;;;2.63;;
55641;SDS011;41509;53.108;6.100;2022-11-20T13:12:34;6.93;;;3.00;;
55641;SDS011;41509;53.108;6.100;2022-11-20T13:18:10;6.07;;;2.67;;
55641;SDS011;41509;53.108;6.100;2022-11-20T13:20:41;5.28;;;3.05;;
55641;SDS011;41509;53.108;6.100;2022-11-20T13:23:08;6.90;;;3.65;;
55641;SDS011;41509;53.108;6.100;2022-11-20T13:25:35;6.43;;;3.20;;
55641;SDS011;41509;53.108;6.100;2022-11-20T13:30:34;6.63;;;3.40;;
55641;SDS011;41509;53.108;6.100;2022-11-20T13:33:08;8.10;;;3.38;;
55641;SDS011;41509;53.108;6.100;2022-11-20T13:36:33;6.67;;;3.30;;
55641;SDS011;41509;53.108;6.100;2022-11-20T13:38:48;6.25;;;3.03;;
55641;SDS011;41509;53.108;6.100;2022-11-20T13:43:54;7.82;;;3.53;;
55641;SDS011;41509;53.108;6.100;2022-11-20T13:46:23;5.97;;;2.58;;
55641;SDS011;41509;53.108;6.100;2022-11-20T13:48:59;5.57;;;2.90;;
55641;SDS011;41509;53.108;6.100;2022-11-20T13:51:44;6.13;;;3.25;;
55641;SDS011;41509;53.108;6.100;2022-11-20T14:00:17;8.82;;;3.13;;
55641;SDS011;41509;53.108;6.100;2022-11-20T14:03:27;7.25;;;3.85;;
55641;SDS011;41509;53.108;6.100;2022-11-20T14:05:38;5.53;;;3.15;;
55641;SDS011;41509;53.108;6.100;2022-11-20T14:08:14;7.80;;;3.88;;
55641;SDS011;41509;53.108;6.100;2022-11-20T14:10:48;7.68;;;3.90;;
55641;SDS011;41509;53.108;6.100;2022-11-20T14:13:20;7.27;;;3.23;;
55641;SDS011;41509;53.108;6.100;2022-11-20T14:15:46;7.70;;;3.60;;
55641;SDS011;41509;53.108;6.100;2022-11-20T14:18:12;6.87;;;3.17;;
55641;SDS011;41509;53.108;6.100;2022-11-20T14:20:40;7.15;;;3.65;;
55641;SDS011;41509;53.108;6.100;2022-11-20T14:23:09;7.45;;;3.60;;
55641;SDS011;41509;53.108;6.100;2022-11-20T14:25:35;9.27;;;3.78;;
55641;SDS011;41509;53.108;6.100;2022-11-20T14:28:02;7.25;;;3.80;;
55641;SDS011;41509;53.108;6.100;2022-11-20T14:30:37;7.25;;;3.50;;
55641;SDS011;41509;53.108;6.100;2022-11-20T14:33:12;6.13;;;3.17;;
55641;SDS011;41509;53.108;6.100;2022-11-20T14:35:46;8.23;;;4.43;;
55641;SDS011;41509;53.108;6.100;2022-11-20T14:38:15;7.97;;;4.30;;
55641;SDS011;41509;53.108;6.100;2022-11-20T14:40:43;7.82;;;4.30;;
55641;SDS011;41509;53.108;6.100;2022-11-20T14:43:44;10.53;;;4.60;;
55641;SDS011;41509;53.108;6.100;2022-11-20T14:46:03;7.18;;;3.80;;
55641;SDS011;41509;53.108;6.100;2022-11-20T14:48:37;7.07;;;3.72;;
55641;SDS011;41509;53.108;6.100;2022-11-20T14:51:05;5.97;;;3.22;;
55641;SDS011;41509;53.108;6.100;2022-11-20T14:53:35;10.90;;;4.43;;
55641;SDS011;41509;53.108;6.100;2022-11-20T14:56:01;9.97;;;3.37;;
55641;SDS011;41509;53.108;6.100;2022-11-20T14:58:28;7.93;;;4.07;;
55641;SDS011;41509;53.108;6.100;2022-11-20T15:01:04;9.05;;;3.70;;
55641;SDS011;41509;53.108;6.100;2022-11-20T15:03:38;6.85;;;3.20;;
55641;SDS011;41509;53.108;6.100;2022-11-20T15:06:06;7.93;;;4.13;;
55641;SDS011;41509;53.108;6.100;2022-11-20T15:08:35;7.30;;;4.05;;
55641;SDS011;41509;53.108;6.100;2022-11-20T15:11:01;8.57;;;4.30;;
55641;SDS011;41509;53.108;6.100;2022-11-20T15:13:37;7.72;;;3.97;;
55641;SDS011;41509;53.108;6.100;2022-11-20T15:16:08;7.50;;;3.70;;
55641;SDS011;41509;53.108;6.100;2022-11-20T15:18:41;7.68;;;4.18;;
55641;SDS011;41509;53.108;6.100;2022-11-20T15:21:10;8.47;;;3.87;;
55641;SDS011;41509;53.108;6.100;2022-11-20T15:23:37;17.52;;;6.15;;
55641;SDS011;41509;53.108;6.100;2022-11-20T15:26:06;20.73;;;8.30;;
55641;SDS011;41509;53.108;6.100;2022-11-20T15:28:36;14.48;;;6.13;;
55641;SDS011;41509;53.108;6.100;2022-11-20T15:31:13;24.83;;;8.15;;
55641;SDS011;41509;53.108;6.100;2022-11-20T15:33:41;19.77;;;7.55;;
55641;SDS011;41509;53.108;6.100;2022-11-20T15:36:07;20.27;;;7.20;;
55641;SDS011;41509;53.108;6.100;2022-11-20T15:38:33;16.15;;;6.55;;
55641;SDS011;41509;53.108;6.100;2022-11-20T15:41:02;12.27;;;5.97;;
55641;SDS011;41509;53.108;6.100;2022-11-20T15:43:27;21.90;;;7.40;;
55641;SDS011;41509;53.108;6.100;2022-11-20T15:45:55;14.57;;;4.97;;
55641;SDS011;41509;53.108;6.100;2022-11-20T15:48:44;9.93;;;5.07;;
55641;SDS011;41509;53.108;6.100;2022-11-20T15:51:32;10.55;;;4.95;;
55641;SDS011;41509;53.108;6.100;2022-11-20T15:54:18;9.63;;;4.55;;
55641;SDS011;41509;53.108;6.100;2022-11-20T15:56:49;9.88;;;4.93;;
55641;SDS011;41509;53.108;6.100;2022-11-20T15:59:18;10.85;;;4.78;;
55641;SDS011;41509;53.108;6.100;2022-11-20T16:01:46;8.63;;;4.83;;
55641;SDS011;41509;53.108;6.100;2022-11-20T16:04:12;11.20;;;5.45;;
55641;SDS011;41509;53.108;6.100;2022-11-20T16:06:40;10.35;;;5.07;;
55641;SDS011;41509;53.108;6.100;2022-11-20T16:09:05;9.40;;;4.73;;
55641;SDS011;41509;53.108;6.100;2022-11-20T16:11:31;12.02;;;4.82;;
55641;SDS011;41509;53.108;6.100;2022-11-20T16:13:57;9.43;;;4.60;;
55641;SDS011;41509;53.108;6.100;2022-11-20T16:16:41;9.15;;;4.88;;
55641;SDS011;41509;53.108;6.100;2022-11-20T16:19:14;10.52;;;5.38;;
55641;SDS011;41509;53.108;6.100;2022-11-20T16:21:40;10.27;;;5.32;;
55641;SDS011;41509;53.108;6.100;2022-11-20T16:24:07;10.65;;;5.70;;
55641;SDS011;41509;53.108;6.100;2022-11-20T16:26:38;10.75;;;5.32;;
55641;SDS011;41509;53.108;6.100;2022-11-20T16:29:05;9.50;;;5.20;;
55641;SDS011;41509;53.108;6.100;2022-11-20T16:34:04;15.07;;;5.30;;
55641;SDS011;41509;53.108;6.100;2022-11-20T16:36:34;11.23;;;5.15;;
55641;SDS011;41509;53.108;6.100;2022-11-20T16:39:01;7.75;;;4.80;;
55641;SDS011;41509;53.108;6.100;2022-11-20T16:41:29;10.02;;;5.18;;
55641;SDS011;41509;53.108;6.100;2022-11-20T16:43:57;10.93;;;4.97;;
55641;SDS011;41509;53.108;6.100;2022-11-20T16:46:30;9.90;;;5.78;;
55641;SDS011;41509;53.108;6.100;2022-11-20T16:48:57;12.25;;;5.60;;
55641;SDS011;41509;53.108;6.100;2022-11-20T16:51:25;10.85;;;5.65;;
55641;SDS011;41509;53.108;6.100;2022-11-20T16:53:52;11.45;;;5.28;;